Time;durP1;ratioP1;P1;durP2;ratioP2;P2;SDS_P1;SDS_P2;PMS_P1;PMS_P2;Temp;Humidity;BMP_temperature;BMP_pressure;BME280_temperature;BME280_humidity;BME280_pressure;Samples;Min_cycle;Max_cycle;Signal;HPM_P1;HPM_P2
2022/05/28 00:00:54;;;;;;;6.28;2.80;;;;;;;14.78;60.07;100581.03;5035264;28;20102;-63
2022/05/28 00:03:46;;;;;;;7.40;3.38;;;;;;;14.78;60.15;100575.81;5035108;28;20053;-63
2022/05/28 00:06:35;;;;;;;7.57;2.80;;;;;;;14.79;60.40;100571.50;5035754;28;20076;-63
2022/05/28 00:09:21;;;;;;;11.13;3.70;;;;;;;14.80;60.33;100575.81;5034813;28;20161;-63
2022/05/28 00:12:06;;;;;;;41.17;5.20;;;;;;;14.78;60.18;100568.00;5035289;28;20531;-63
2022/05/28 00:14:55;;;;;;;8.20;3.17;;;;;;;14.76;60.48;100570.59;5035979;28;20064;-63
2022/05/28 00:17:44;;;;;;;12.27;3.25;;;;;;;14.77;60.58;100574.97;5034934;28;20049;-63
2022/05/28 00:20:29;;;;;;;9.90;2.65;;;;;;;14.77;60.39;100572.34;5034576;28;20102;-63
2022/05/28 00:23:15;;;;;;;9.68;2.97;;;;;;;14.77;60.32;100569.75;5034825;28;20056;-63
2022/05/28 00:26:03;;;;;;;11.38;3.08;;;;;;;14.77;60.51;100574.97;5035382;28;20412;-63
2022/05/28 00:28:52;;;;;;;8.30;3.28;;;;;;;14.76;60.35;100573.22;5035541;28;20087;-63
2022/05/28 00:31:39;;;;;;;7.43;2.90;;;;;;;14.75;60.55;100568.88;5034878;28;20103;-63
2022/05/28 00:34:29;;;;;;;5.90;2.30;;;;;;;14.76;60.39;100567.09;5034612;28;20048;-64
2022/05/28 00:37:14;;;;;;;6.15;3.20;;;;;;;14.72;60.35;100563.63;5034379;28;20056;-62
2022/05/28 00:39:59;;;;;;;11.50;3.28;;;;;;;14.73;60.66;100564.47;5034624;28;20060;-63
2022/05/28 00:42:50;;;;;;;10.02;3.20;;;;;;;14.71;60.52;100567.09;5034342;28;20044;-62
2022/05/28 00:45:39;;;;;;;7.03;2.83;;;;;;;14.71;60.55;100566.22;5034147;28;20411;-63
2022/05/28 00:48:29;;;;;;;9.73;3.40;;;;;;;14.70;60.44;100567.09;5034457;28;20056;-63
2022/05/28 00:51:22;;;;;;;9.93;3.65;;;;;;;14.69;60.34;100566.19;5033798;28;20044;-63
2022/05/28 00:54:17;;;;;;;7.00;2.90;;;;;;;14.69;60.61;100562.72;5034561;28;20104;-63
2022/05/28 00:57:05;;;;;;;7.35;3.28;;;;;;;14.68;60.54;100567.06;5034226;28;20068;-64
2022/05/28 00:59:52;;;;;;;13.57;3.70;;;;;;;14.67;60.29;100567.03;5034238;28;20091;-64
2022/05/28 01:02:45;;;;;;;13.27;3.45;;;;;;;14.66;60.32;100562.66;5033698;28;20099;-64
2022/05/28 01:05:47;;;;;;;13.13;3.53;;;;;;;14.64;60.41;100560.03;5034031;28;20071;-64
2022/05/28 01:08:38;;;;;;;11.15;3.83;;;;;;;14.64;60.45;100560.03;5034483;28;20085;-63
2022/05/28 01:11:45;;;;;;;8.98;3.47;;;;;;;14.63;60.23;100553.09;5034291;28;20048;-63
2022/05/28 01:14:39;;;;;;;6.25;2.90;;;;;;;14.61;60.47;100547.84;5034488;28;20512;-63
2022/05/28 01:17:58;;;;;;;6.72;2.60;;;;;;;14.61;60.37;100549.59;5034860;28;20084;-63
2022/05/28 01:20:59;;;;;;;9.00;2.53;;;;;;;14.59;60.35;100548.72;5033291;28;20052;-62
2022/05/28 01:24:18;;;;;;;6.45;3.10;;;;;;;14.58;60.34;100540.00;5033730;28;20048;-63
2022/05/28 01:27:21;;;;;;;7.72;3.17;;;;;;;14.57;60.28;100542.59;5014381;28;20416;-62
2022/05/28 01:30:10;;;;;;;7.72;3.20;;;;;;;14.56;60.49;100538.25;5032876;28;20136;-63
2022/05/28 01:33:00;;;;;;;10.90;3.35;;;;;;;14.56;60.62;100541.72;5034336;28;20068;-63
2022/05/28 01:35:49;;;;;;;9.90;3.72;;;;;;;14.55;60.22;100532.16;5034363;28;20523;-63
2022/05/28 01:38:38;;;;;;;9.43;4.00;;;;;;;14.54;60.33;100533.03;5033949;28;20056;-63
2022/05/28 01:41:26;;;;;;;10.52;4.13;;;;;;;14.54;60.52;100529.53;5032950;28;20519;-63
2022/05/28 01:44:18;;;;;;;6.18;3.10;;;;;;;14.53;60.39;100528.66;5033151;28;20079;-62
2022/05/28 01:47:10;;;;;;;9.70;4.05;;;;;;;14.52;60.45;100524.31;5034374;28;20048;-63
2022/05/28 01:50:01;;;;;;;12.90;3.78;;;;;;;14.51;60.42;100526.91;5033699;28;20092;-63
2022/05/28 01:52:52;;;;;;;8.77;3.00;;;;;;;14.50;60.33;100525.16;5033443;28;20056;-63
2022/05/28 01:55:44;;;;;;;8.50;3.55;;;;;;;14.49;60.49;100524.28;5034111;28;20132;-63
2022/05/28 01:58:30;;;;;;;7.80;3.13;;;;;;;14.48;60.43;100519.06;5032876;28;20052;-63
2022/05/28 02:01:14;;;;;;;8.57;3.40;;;;;;;14.48;60.44;100524.28;5032263;28;20052;-63
2022/05/28 02:04:04;;;;;;;10.48;3.97;;;;;;;14.47;60.33;100520.78;5032992;28;20615;-63
2022/05/28 02:06:53;;;;;;;6.80;3.05;;;;;;;14.45;60.44;100520.78;5033815;28;20464;-63
2022/05/28 02:09:52;;;;;;;9.02;3.58;;;;;;;14.44;60.30;100516.44;5033989;28;20136;-63
2022/05/28 02:12:58;;;;;;;11.23;3.42;;;;;;;14.43;60.40;100522.50;5034174;28;20103;-63
2022/05/28 02:15:48;;;;;;;8.65;3.78;;;;;;;14.43;60.34;100519.91;5032658;28;20092;-63
2022/05/28 02:18:44;;;;;;;10.60;4.00;;;;;;;14.43;60.40;100519.91;5032112;28;20123;-63
2022/05/28 02:21:41;;;;;;;9.40;3.92;;;;;;;14.43;60.39;100513.78;5032765;28;20048;-63
2022/05/28 02:24:56;;;;;;;9.35;3.60;;;;;;;14.40;60.41;100514.66;5032780;28;20092;-63
2022/05/28 02:27:44;;;;;;;;;;;;;;;14.38;60.37;100513.75;5032732;28;20132;-63
2022/05/28 02:30:31;;;;;;;8.80;3.53;;;;;;;14.38;60.58;100510.31;5032578;28;19967;-63
2022/05/28 02:33:21;;;;;;;8.40;3.75;;;;;;;14.37;60.51;100506.81;5032000;28;20052;-63
2022/05/28 02:36:06;;;;;;;13.45;3.33;;;;;;;14.39;60.57;100518.13;5032172;28;20044;-63
2022/05/28 02:38:53;;;;;;;13.02;3.63;;;;;;;14.37;60.41;100508.56;5032041;28;20462;-64
2022/05/28 02:41:38;;;;;;;13.75;4.13;;;;;;;14.37;60.44;100512.03;5032580;28;20108;-64
2022/05/28 02:44:28;;;;;;;7.13;2.78;;;;;;;14.36;60.74;100517.22;5032642;28;20512;-63
2022/05/28 02:47:15;;;;;;;6.90;3.17;;;;;;;14.35;60.63;100511.13;5032270;28;20167;-64
2022/05/28 02:50:02;;;;;;;13.93;3.38;;;;;;;14.35;60.58;100508.53;5032373;28;20088;-63
2022/05/28 02:52:51;;;;;;;7.03;3.08;;;;;;;14.33;60.36;100505.03;5035247;28;20522;-63
2022/05/28 02:55:38;;;;;;;11.15;3.50;;;;;;;14.34;60.34;100514.59;5036204;28;20049;-63
2022/05/28 02:58:25;;;;;;;10.88;3.65;;;;;;;14.35;60.69;100507.66;5036364;28;20520;-63
2022/05/28 03:01:28;;;;;;;7.28;2.88;;;;;;;14.32;60.47;100509.38;5036172;28;20532;-62
2022/05/28 03:04:15;;;;;;;9.88;3.83;;;;;;;14.33;60.51;100510.25;5036295;28;20060;-63
2022/05/28 03:07:04;;;;;;;10.65;3.95;;;;;;;14.32;60.46;100512.00;5036224;28;20132;-63
2022/05/28 03:09:56;;;;;;;8.70;2.75;;;;;;;14.31;60.45;100505.03;5036801;28;20103;-63
2022/05/28 03:12:43;;;;;;;8.07;3.28;;;;;;;14.31;60.83;100504.16;5035493;28;20044;-63
2022/05/28 03:15:27;;;;;;;9.18;2.70;;;;;;;14.29;60.50;100506.75;5036932;28;20511;-63
2022/05/28 03:18:14;;;;;;;9.32;3.10;;;;;;;14.29;60.58;100509.34;5036782;28;20049;-63
2022/05/28 03:21:04;;;;;;;8.30;3.22;;;;;;;14.28;60.51;100509.34;5036539;28;20060;-64
2022/05/28 03:23:48;;;;;;;9.63;3.15;;;;;;;14.28;60.31;100511.97;5036588;28;20052;-62
2022/05/28 03:26:33;;;;;;;8.27;3.45;;;;;;;14.27;60.55;100505.00;5035724;28;20072;-63
2022/05/28 03:29:22;;;;;;;12.13;3.75;;;;;;;14.26;60.56;100508.47;5035442;28;20056;-63
2022/05/28 03:32:11;;;;;;;6.93;2.83;;;;;;;14.25;60.36;100504.97;5035360;28;20568;-63
2022/05/28 03:34:58;;;;;;;11.95;4.28;;;;;;;14.25;60.72;100499.75;5035997;28;20096;-63
2022/05/28 03:37:48;;;;;;;10.20;3.60;;;;;;;14.24;60.43;100495.44;5035737;28;20103;-63
2022/05/28 03:40:36;;;;;;;11.00;3.88;;;;;;;14.23;60.59;100496.28;5035672;28;20095;-62
2022/05/28 03:43:26;;;;;;;12.68;3.85;;;;;;;14.22;60.51;100499.75;5035242;28;20111;-63
2022/05/28 03:46:26;;;;;;;10.85;3.25;;;;;;;14.21;60.49;100508.44;5035111;28;20408;-63
2022/05/28 03:49:35;;;;;;;8.95;3.13;;;;;;;14.22;60.46;100506.69;5035207;28;20409;-63
2022/05/28 03:52:25;;;;;;;11.10;3.85;;;;;;;14.20;60.72;100506.69;5036014;28;20103;-64
2022/05/28 03:55:15;;;;;;;8.57;3.08;;;;;;;14.21;61.01;100494.50;5035439;28;20401;-63
2022/05/28 03:58:04;;;;;;;8.07;3.25;;;;;;;14.19;60.76;100499.72;5035266;28;20099;-62
2022/05/28 04:00:48;;;;;;;8.60;3.33;;;;;;;14.20;60.77;100495.38;5035530;28;20099;-63
2022/05/28 04:03:32;;;;;;;9.13;3.38;;;;;;;14.20;60.71;100505.78;5035664;28;20060;-63
2022/05/28 04:06:16;;;;;;;7.50;3.22;;;;;;;14.20;60.80;100497.97;5035965;28;20107;-63
2022/05/28 04:09:01;;;;;;;7.93;3.42;;;;;;;14.18;60.66;100505.78;5035741;28;20053;-62
2022/05/28 04:11:45;;;;;;;8.75;2.80;;;;;;;14.17;60.72;100501.44;5035334;28;20053;-63
2022/05/28 04:14:31;;;;;;;9.38;3.85;;;;;;;14.15;60.56;100498.81;5034753;28;20053;-63
2022/05/28 04:17:18;;;;;;;8.90;3.55;;;;;;;14.16;60.49;100502.28;5035580;28;20420;-63
2022/05/28 04:20:10;;;;;;;11.90;3.58;;;;;;;14.15;60.80;100500.53;5034481;28;20075;-63
2022/05/28 04:22:54;;;;;;;7.22;2.85;;;;;;;14.15;60.69;100501.44;5035844;28;20045;-64
2022/05/28 04:25:40;;;;;;;7.43;3.30;;;;;;;14.14;60.66;100502.28;5035844;28;20096;-63
2022/05/28 04:28:26;;;;;;;7.13;3.22;;;;;;;14.14;60.80;100512.72;5034489;28;20052;-63
2022/05/28 04:31:13;;;;;;;11.60;3.63;;;;;;;14.14;60.87;100512.72;5034397;28;20523;-63
2022/05/28 04:33:57;;;;;;;9.07;3.58;;;;;;;14.14;60.87;100511.81;5034376;28;20092;-63
2022/05/28 04:36:44;;;;;;;7.35;3.33;;;;;;;14.13;60.95;100507.47;5035124;28;20427;-63
2022/05/28 04:39:34;;;;;;;8.57;3.78;;;;;;;14.13;60.79;100517.91;5035645;28;20412;-63
2022/05/28 04:42:21;;;;;;;10.23;3.53;;;;;;;14.12;60.90;100521.38;5034641;28;20072;-63
2022/05/28 04:45:10;;;;;;;10.18;3.38;;;;;;;14.12;60.80;100523.97;5035455;28;20048;-63
2022/05/28 04:47:59;;;;;;;12.10;3.78;;;;;;;14.12;61.00;100523.97;5035298;28;20056;-63
2022/05/28 04:50:44;;;;;;;9.93;3.88;;;;;;;14.09;60.94;100524.81;5034569;28;20519;-64
2022/05/28 04:53:33;;;;;;;13.43;3.65;;;;;;;14.08;61.12;100520.47;5034307;28;20080;-64
2022/05/28 04:56:17;;;;;;;10.65;4.05;;;;;;;14.06;61.00;100519.56;5034129;28;20084;-63
2022/05/28 04:59:01;;;;;;;11.35;4.68;;;;;;;14.03;60.59;100527.38;5033877;28;20047;-63
2022/05/28 05:01:48;;;;;;;9.25;3.25;;;;;;;14.01;60.85;100519.53;5034802;28;20092;-64
2022/05/28 05:04:35;;;;;;;11.38;4.00;;;;;;;14.00;60.92;100520.41;5035043;28;20044;-63
2022/05/28 05:07:21;;;;;;;12.43;3.55;;;;;;;14.00;60.90;100528.22;5034755;28;20135;-63
2022/05/28 05:10:12;;;;;;;11.93;4.13;;;;;;;14.01;60.99;100524.75;5033411;28;20130;-64
2022/05/28 05:13:02;;;;;;;12.73;4.22;;;;;;;14.01;60.93;100522.16;5033370;28;20080;-63
2022/05/28 05:15:55;;;;;;;11.25;3.60;;;;;;;14.01;60.79;100527.34;5032812;28;20056;-64
2022/05/28 05:18:43;;;;;;;10.52;4.05;;;;;;;14.01;60.99;100531.72;5033546;28;20051;-63
2022/05/28 05:21:27;;;;;;;10.68;3.92;;;;;;;14.00;60.92;100523.00;5033598;28;20133;-63
2022/05/28 05:24:14;;;;;;;8.88;3.50;;;;;;;13.99;60.91;100523.84;5034711;28;20107;-63
2022/05/28 05:27:02;;;;;;;7.32;2.70;;;;;;;13.99;60.99;100534.28;5034161;28;20416;-63
2022/05/28 05:29:58;;;;;;;10.05;4.75;;;;;;;13.99;60.96;100530.81;5033780;28;20570;-62
2022/05/28 05:32:51;;;;;;;11.43;4.00;;;;;;;13.97;61.04;100536.00;5034142;28;20103;-63
2022/05/28 05:35:41;;;;;;;8.90;4.13;;;;;;;13.97;60.98;100533.38;5033908;28;20059;-63
2022/05/28 05:38:33;;;;;;;14.52;4.43;;;;;;;13.97;61.25;100530.78;5032988;28;20171;-63
2022/05/28 05:41:17;;;;;;;10.38;4.10;;;;;;;13.95;61.30;100523.81;5032928;28;20574;-63
2022/05/28 05:44:10;;;;;;;15.38;4.18;;;;;;;13.94;61.40;100530.75;5034079;28;20156;-63
2022/05/28 05:46:56;;;;;;;13.02;4.10;;;;;;;13.90;61.10;100534.22;5033350;28;20048;-63
2022/05/28 05:49:46;;;;;;;9.60;3.35;;;;;;;13.90;61.18;100534.22;5033669;28;20052;-64
2022/05/28 05:52:40;;;;;;;13.13;4.47;;;;;;;13.89;61.33;100537.66;5033852;28;20049;-63
2022/05/28 05:55:27;;;;;;;10.15;3.47;;;;;;;13.89;61.28;100529.84;5032866;28;20052;-63
2022/05/28 05:58:14;;;;;;;10.20;3.80;;;;;;;13.92;61.27;100539.41;5033108;28;20507;-63
2022/05/28 06:01:00;;;;;;;12.68;4.25;;;;;;;13.91;61.24;100535.06;5033783;28;20128;-63
2022/05/28 06:03:44;;;;;;;10.88;4.03;;;;;;;13.91;61.46;100532.47;5033666;28;20212;-63
2022/05/28 06:06:28;;;;;;;14.60;4.97;;;;;;;13.91;61.25;100540.28;5034009;28;20503;-63
2022/05/28 06:09:15;;;;;;;8.65;3.70;;;;;;;13.87;61.35;100528.97;5033193;28;20574;-63
2022/05/28 06:12:07;;;;;;;17.88;4.82;;;;;;;13.86;61.63;100528.06;5032943;28;20091;-63
2022/05/28 06:14:57;;;;;;;11.52;3.90;;;;;;;13.88;61.41;100528.09;5032244;28;20075;-63
2022/05/28 06:17:44;;;;;;;10.13;4.28;;;;;;;13.88;61.55;100524.59;5033750;28;20454;-63
2022/05/28 06:20:39;;;;;;;11.27;3.80;;;;;;;13.88;61.46;100540.25;5032454;28;20527;-63
2022/05/28 06:23:32;;;;;;;10.40;3.65;;;;;;;13.84;61.79;100536.72;5032806;28;20072;-63
2022/05/28 06:26:19;;;;;;;9.30;4.70;;;;;;;13.86;61.76;100529.81;5031980;28;20048;-63
2022/05/28 06:29:06;;;;;;;12.63;4.63;;;;;;;13.86;61.57;100535.03;5033381;28;20052;-63
2022/05/28 06:31:50;;;;;;;10.68;3.55;;;;;;;13.85;61.80;100534.16;5033702;28;20107;-62
2022/05/28 06:34:39;;;;;;;9.77;4.00;;;;;;;13.82;61.87;100531.53;5033546;28;20052;-63
2022/05/28 06:37:32;;;;;;;15.30;4.25;;;;;;;13.85;61.81;100530.66;5033043;28;20057;-64
2022/05/28 06:40:22;;;;;;;14.18;3.80;;;;;;;13.84;61.87;100536.72;5033394;28;20572;-63
2022/05/28 06:43:11;;;;;;;9.13;3.90;;;;;;;13.83;61.94;100533.28;5032517;28;20511;-63
2022/05/28 06:46:03;;;;;;;10.50;3.83;;;;;;;13.83;61.77;100538.47;5032618;28;20187;-62
2022/05/28 06:48:53;;;;;;;8.30;3.78;;;;;;;13.82;61.81;100536.72;5033172;28;20048;-63
2022/05/28 06:51:43;;;;;;;14.85;4.15;;;;;;;13.84;62.01;100535.03;5032135;28;20098;-63
2022/05/28 06:54:27;;;;;;;10.65;3.63;;;;;;;13.84;62.05;100532.41;5033036;28;20471;-62
2022/05/28 06:57:17;;;;;;;11.70;4.07;;;;;;;13.85;61.86;100536.78;5033538;28;20048;-62
2022/05/28 07:00:08;;;;;;;9.45;3.25;;;;;;;13.86;62.17;100527.22;5032236;28;20420;-63
2022/05/28 07:02:52;;;;;;;11.77;3.55;;;;;;;13.85;62.17;100531.56;5032056;28;20068;-64
2022/05/28 07:05:36;;;;;;;7.88;2.85;;;;;;;13.86;62.08;100530.66;5032361;28;20535;-62
2022/05/28 07:08:20;;;;;;;10.13;4.15;;;;;;;13.82;61.91;100535.84;5033428;28;20571;-63
2022/05/28 07:11:05;;;;;;;11.32;3.83;;;;;;;13.84;62.03;100529.81;5032212;28;20040;-63
2022/05/28 07:13:50;;;;;;;14.30;3.20;;;;;;;13.85;62.01;100535.88;5033050;28;20523;-62
2022/05/28 07:16:33;;;;;;;8.32;3.13;;;;;;;13.85;61.89;100535.88;5032983;28;20048;-63
2022/05/28 07:19:17;;;;;;;7.05;3.28;;;;;;;13.86;61.88;100535.03;5033039;28;20115;-63
2022/05/28 07:22:02;;;;;;;5.30;2.83;;;;;;;13.83;61.88;100542.81;5032779;28;20103;-63
2022/05/28 07:24:46;;;;;;;6.38;3.17;;;;;;;13.82;62.03;100546.25;5032654;28;20098;-63
2022/05/28 07:27:30;;;;;;;7.70;2.95;;;;;;;13.84;61.97;100537.63;5032113;28;20091;-63
2022/05/28 07:30:14;;;;;;;8.93;3.17;;;;;;;13.83;61.73;100538.47;5031597;28;20056;-64
2022/05/28 07:32:58;;;;;;;11.95;3.25;;;;;;;13.83;61.86;100538.47;5032452;28;20420;-63
2022/05/28 07:35:42;;;;;;;12.80;3.60;;;;;;;13.85;62.03;100543.69;5032256;28;20049;-63
2022/05/28 07:38:27;;;;;;;;;;;;;;;13.85;61.83;100544.59;5035189;28;20522;-63
2022/05/28 07:41:13;;;;;;;;;;;;;;;13.85;61.88;100536.78;5036545;28;19947;-63
2022/05/28 07:43:57;;;;;;;9.02;2.85;;;;;;;13.86;62.05;100535.03;5035267;28;19963;-62
2022/05/28 07:46:41;;;;;;;7.32;2.80;;;;;;;13.89;62.05;100540.28;5036596;28;20048;-62
2022/05/28 07:49:24;;;;;;;8.02;2.55;;;;;;;13.87;62.08;100544.59;5035101;28;20048;-63
2022/05/28 07:52:09;;;;;;;7.35;3.00;;;;;;;13.88;62.14;100538.53;5035019;28;20459;-63
2022/05/28 07:54:52;;;;;;;11.35;3.67;;;;;;;13.88;61.92;100537.63;5035838;28;20056;-62
2022/05/28 07:57:36;;;;;;;8.32;2.67;;;;;;;13.88;62.12;100533.31;5036162;28;20132;-63
2022/05/28 08:00:20;;;;;;;10.20;2.70;;;;;;;13.85;61.85;100535.88;5036221;28;20586;-63
2022/05/28 08:03:05;;;;;;;6.28;2.80;;;;;;;13.82;62.18;100530.63;5035502;28;20083;-63
2022/05/28 08:05:51;;;;;;;7.90;2.72;;;;;;;13.86;62.16;100532.41;5034987;28;20048;-63
2022/05/28 08:08:35;;;;;;;11.07;3.10;;;;;;;13.87;61.82;100539.38;5035246;28;20051;-63
2022/05/28 08:11:21;;;;;;;11.43;3.25;;;;;;;13.86;61.84;100533.28;5034753;28;20167;-63
2022/05/28 08:14:06;;;;;;;9.18;3.28;;;;;;;13.85;61.79;100534.16;5034792;28;20056;-63
2022/05/28 08:16:50;;;;;;;9.40;2.65;;;;;;;13.87;61.77;100528.97;5034880;28;20045;-63
2022/05/28 08:19:33;;;;;;;4.95;2.35;;;;;;;13.86;61.55;100529.81;5035622;28;20467;-63
2022/05/28 08:25:20;;;;;;;7.38;2.75;;;;;;;13.86;61.80;100540.22;5035692;28;20052;-62
2022/05/28 08:28:06;;;;;;;7.68;2.60;;;;;;;13.86;61.78;100543.69;5034645;28;20048;-63
2022/05/28 08:30:52;;;;;;;6.55;3.15;;;;;;;13.88;61.57;100537.63;5034446;28;20074;-64
2022/05/28 08:33:36;;;;;;;9.20;2.92;;;;;;;13.90;61.80;100531.59;5035176;28;20048;-62
2022/05/28 08:36:20;;;;;;;8.18;2.53;;;;;;;13.92;62.26;100532.50;5035334;28;20056;-63
2022/05/28 08:39:04;;;;;;;3.97;2.20;;;;;;;13.96;61.83;100528.19;5035556;28;20079;-63
2022/05/28 08:41:55;;;;;;;5.03;1.85;;;;;;;13.97;61.71;100532.53;5035513;28;20044;-62
2022/05/28 08:44:44;;;;;;;5.35;2.13;;;;;;;13.99;61.75;100538.63;5035196;28;20052;-63
2022/05/28 08:47:29;;;;;;;6.32;2.20;;;;;;;14.00;61.89;100540.38;5033971;28;20073;-63
2022/05/28 08:50:14;;;;;;;5.20;2.55;;;;;;;14.03;61.93;100531.72;5034019;28;20044;-63
2022/05/28 08:53:20;;;;;;;5.68;2.47;;;;;;;14.04;61.84;100539.53;5034407;28;20128;-63
2022/05/28 08:56:05;;;;;;;4.30;2.83;;;;;;;14.06;61.91;100536.97;5033779;28;20115;-63
2022/05/28 08:59:00;;;;;;;5.13;2.30;;;;;;;14.07;61.84;100539.56;5035118;28;20115;-63
2022/05/28 09:01:44;;;;;;;8.73;2.60;;;;;;;14.07;61.61;100525.69;5034708;28;20588;-64
2022/05/28 09:04:38;;;;;;;6.65;2.58;;;;;;;14.07;61.68;100521.31;5035200;28;20072;-63
2022/05/28 09:07:23;;;;;;;3.80;1.90;;;;;;;14.08;61.89;100523.06;5034010;28;20455;-64
2022/05/28 09:10:10;;;;;;;;;;;;;;;14.08;61.68;100523.06;5035284;28;20103;-63
2022/05/28 09:13:39;;;;;;;4.72;1.98;;;;;;;14.08;61.74;100520.47;5033726;28;19971;-63
2022/05/28 09:16:30;;;;;;;6.78;2.28;;;;;;;14.09;61.56;100526.56;5034830;28;20516;-63
2022/05/28 09:19:21;;;;;;;5.47;2.22;;;;;;;14.10;61.30;100520.47;5033917;28;20496;-62
2022/05/28 09:22:04;;;;;;;5.30;1.98;;;;;;;14.10;61.50;100523.06;5033699;28;20068;-64
2022/05/28 09:24:49;;;;;;;3.47;2.03;;;;;;;14.13;61.49;100530.94;5034507;28;20052;-63
2022/05/28 09:27:51;;;;;;;7.78;2.53;;;;;;;14.12;61.60;100519.66;5034242;28;20087;-63
2022/05/28 09:30:57;;;;;;;7.63;2.08;;;;;;;14.13;61.44;100512.69;5034017;28;20424;-63
2022/05/28 09:34:09;;;;;;;6.40;2.33;;;;;;;14.11;61.68;100517.00;5033853;28;20623;-63
2022/05/28 09:37:27;;;;;;;6.70;2.40;;;;;;;14.14;61.61;100514.44;5033606;28;20104;-62
2022/05/28 09:40:25;;;;;;;9.57;2.20;;;;;;;14.12;61.39;100514.44;5034184;28;20128;-63
2022/05/28 09:43:33;;;;;;;3.70;2.20;;;;;;;14.12;61.43;100519.66;5033160;28;20056;-63
2022/05/28 09:46:27;;;;;;;7.65;2.00;;;;;;;14.13;61.58;100520.50;5033099;28;20091;-63
2022/05/28 09:49:19;;;;;;;6.72;2.25;;;;;;;14.15;61.46;100513.56;5033155;28;20464;-63
2022/05/28 09:52:09;;;;;;;6.40;2.58;;;;;;;14.14;61.71;100514.44;5034001;28;20068;-63
2022/05/28 09:55:11;;;;;;;6.15;2.28;;;;;;;14.16;61.07;100505.78;5032985;28;20180;-63
2022/05/28 09:58:02;;;;;;;7.88;2.30;;;;;;;14.15;61.32;100511.84;5033498;28;20111;-63
2022/05/28 10:00:48;;;;;;;6.15;2.28;;;;;;;14.18;61.09;100507.50;5032718;28;20080;-63
2022/05/28 10:06:46;;;;;;;5.70;2.00;;;;;;;14.18;61.14;100495.38;5034277;28;20099;-64
2022/05/28 10:09:34;;;;;;;3.17;2.13;;;;;;;14.22;61.17;100496.25;5032929;28;20056;-63
2022/05/28 10:12:26;;;;;;;5.60;2.30;;;;;;;14.23;61.52;100491.06;5033007;28;20044;-62
2022/05/28 10:15:39;;;;;;;4.63;1.80;;;;;;;14.23;61.28;100483.25;5032882;28;20119;-63
2022/05/28 10:18:35;;;;;;;5.00;1.98;;;;;;;14.25;61.23;100475.44;5033537;28;20103;-63
2022/05/28 10:21:31;;;;;;;8.80;2.80;;;;;;;14.27;61.21;100485.00;5032430;28;20051;-63
2022/05/28 10:24:18;;;;;;;6.93;2.28;;;;;;;14.27;61.24;100485.00;5033635;28;20071;-63
2022/05/28 10:27:03;;;;;;;4.28;2.33;;;;;;;14.31;61.28;100484.16;5032851;28;20431;-64
2022/05/28 10:29:48;;;;;;;;;;;;;;;14.30;61.04;100479.81;5033847;28;20052;-63
2022/05/28 10:32:43;;;;;;;3.13;1.88;;;;;;;14.31;60.80;100478.09;5033331;28;20039;-63
2022/05/28 10:35:31;;;;;;;3.90;1.77;;;;;;;14.28;60.95;100467.63;5033074;28;20099;-64
2022/05/28 10:38:30;;;;;;;3.35;1.70;;;;;;;14.30;61.02;100476.34;5032206;28;20115;-63
2022/05/28 10:41:21;;;;;;;5.72;2.45;;;;;;;14.32;60.81;100477.25;5032521;28;20133;-62
2022/05/28 10:44:06;;;;;;;3.33;1.77;;;;;;;14.30;61.00;100479.81;5032280;28;20209;-63
2022/05/28 10:47:02;;;;;;;4.53;2.10;;;;;;;14.30;60.63;100479.81;5032084;28;20052;-62
2022/05/28 10:50:09;;;;;;;3.20;1.65;;;;;;;14.29;60.75;100485.88;5033015;28;20112;-63
2022/05/28 10:53:01;;;;;;;4.93;1.58;;;;;;;14.27;60.59;100490.22;5033280;28;20061;-63
2022/05/28 10:55:48;;;;;;;3.33;1.60;;;;;;;14.26;61.10;100491.06;5033445;28;20059;-64
2022/05/28 10:58:57;;;;;;;4.07;1.85;;;;;;;14.26;60.98;100487.59;5033090;28;20064;-63
2022/05/28 11:01:45;;;;;;;4.22;1.90;;;;;;;14.25;61.14;100484.09;5032209;28;20103;-64
2022/05/28 11:05:10;;;;;;;3.70;1.70;;;;;;;14.25;60.75;100475.44;5033028;28;20052;-63
2022/05/28 11:08:06;;;;;;;3.13;1.80;;;;;;;14.26;60.95;100472.81;5008234;28;20121;-63
2022/05/28 11:10:56;;;;;;;5.43;1.95;;;;;;;14.27;61.04;100469.34;5032263;28;20100;-63
2022/05/28 11:14:07;;;;;;;3.35;1.85;;;;;;;14.29;60.95;100466.78;5034986;28;20115;-63
2022/05/28 11:17:10;;;;;;;4.35;2.60;;;;;;;14.26;60.99;100465.00;5036839;28;20088;-63
2022/05/28 11:19:57;;;;;;;6.15;2.25;;;;;;;14.30;61.00;100447.66;5035727;28;20060;-63
2022/05/28 11:23:13;;;;;;;4.43;1.85;;;;;;;14.28;60.26;100446.78;5036849;28;20051;-63
2022/05/28 11:26:04;;;;;;;5.47;1.70;;;;;;;14.29;61.09;100451.13;5036362;28;20044;-63
2022/05/28 11:29:04;;;;;;;5.50;1.95;;;;;;;14.32;60.81;100449.41;5035962;28;20049;-63
2022/05/28 11:32:03;;;;;;;3.85;1.98;;;;;;;14.31;60.47;100442.44;5036373;28;20052;-64
2022/05/28 11:35:25;;;;;;;4.90;1.85;;;;;;;14.34;60.27;100449.41;5036794;28;20103;-63
2022/05/28 11:38:35;;;;;;;4.53;1.95;;;;;;;14.32;60.81;100443.34;5010284;28;20400;-63
2022/05/28 11:41:22;;;;;;;4.00;1.65;;;;;;;14.35;60.82;100437.28;5036327;28;20067;-63
2022/05/28 11:44:21;;;;;;;2.88;1.60;;;;;;;14.35;60.85;100437.28;5036229;28;20091;-65
2022/05/28 11:47:15;;;;;;;5.20;2.17;;;;;;;14.37;60.89;100436.41;5036389;28;20125;-64
2022/05/28 11:53:52;;;;;;;1.70;1.38;;;;;;;14.35;60.90;100432.06;5035823;28;20087;-63
2022/05/28 11:56:37;;;;;;;5.30;2.15;;;;;;;14.36;60.91;100433.81;5035966;28;20056;-63
2022/05/28 11:59:24;;;;;;;3.25;1.52;;;;;;;14.35;60.39;100422.47;5036369;28;20105;-63
2022/05/28 12:02:14;;;;;;;3.22;1.42;;;;;;;14.34;60.51;100425.09;5034997;28;20053;-63
2022/05/28 12:04:58;;;;;;;4.80;1.85;;;;;;;14.34;60.55;100425.09;5035062;28;20048;-64
2022/05/28 12:07:44;;;;;;;2.95;1.77;;;;;;;14.33;60.49;100411.16;5034775;28;20045;-63
2022/05/28 12:11:04;;;;;;;5.22;1.80;;;;;;;14.35;60.52;100417.25;5034578;28;20048;-63
2022/05/28 12:13:54;;;;;;;4.53;1.50;;;;;;;14.37;60.21;100415.53;5034811;28;20531;-64
2022/05/28 12:16:42;;;;;;;4.88;1.92;;;;;;;14.40;60.05;100412.09;5034504;28;20580;-63
2022/05/28 12:19:26;;;;;;;6.18;1.98;;;;;;;14.41;60.03;100413.81;5034617;28;20052;-63
2022/05/28 12:22:29;;;;;;;;;;;;;;;14.40;60.05;100410.34;5035993;28;20067;-64
2022/05/28 12:25:15;;;;;;;3.85;2.13;;;;;;;14.38;60.09;100412.06;5034131;28;19920;-64
2022/05/28 12:28:06;;;;;;;4.35;1.88;;;;;;;14.42;59.95;100407.75;5035335;28;20547;-63
2022/05/28 12:30:53;;;;;;;3.17;1.70;;;;;;;14.42;60.02;100399.91;5034746;28;20555;-63
2022/05/28 12:33:54;;;;;;;2.65;1.95;;;;;;;14.40;60.22;100399.94;5035271;28;20044;-63
2022/05/28 12:36:45;;;;;;;5.85;1.92;;;;;;;14.42;60.34;100392.09;5035320;28;20052;-63
2022/05/28 12:39:43;;;;;;;4.68;1.50;;;;;;;14.44;59.85;100399.09;5034615;28;20099;-63
2022/05/28 12:42:30;;;;;;;2.63;1.55;;;;;;;14.46;59.96;100386.03;5035476;28;20052;-63
2022/05/28 12:45:14;;;;;;;5.85;2.20;;;;;;;14.45;59.98;100382.59;5034072;28;20048;-63
2022/05/28 12:48:10;;;;;;;4.03;1.42;;;;;;;14.47;59.84;100377.38;5034354;28;20041;-63
2022/05/28 12:51:03;;;;;;;4.10;1.70;;;;;;;14.45;60.16;100377.38;5034076;28;20052;-63
2022/05/28 12:53:56;;;;;;;5.03;1.67;;;;;;;14.49;59.67;100377.34;5034706;28;20486;-63
2022/05/28 12:56:43;;;;;;;4.50;1.90;;;;;;;14.45;60.22;100374.75;5034192;28;20055;-63
2022/05/28 12:59:32;;;;;;;4.43;2.15;;;;;;;14.48;59.75;100379.09;5034356;28;20072;-63
2022/05/28 13:02:28;;;;;;;3.65;1.77;;;;;;;14.46;59.69;100378.22;5034751;28;20060;-65
2022/05/28 13:05:23;;;;;;;3.50;1.40;;;;;;;14.45;59.80;100369.53;5033895;28;20049;-63
2022/05/28 13:08:07;;;;;;;;;;;;;;;14.43;59.39;100368.66;5033891;28;20049;-63
2022/05/28 13:10:55;;;;;;;6.40;1.75;;;;;;;14.42;59.51;100368.63;5033935;28;19924;-63
2022/05/28 13:13:54;;;;;;;3.05;2.00;;;;;;;14.41;59.51;100373.00;5034077;28;20133;-63
2022/05/28 13:16:50;;;;;;;4.10;1.83;;;;;;;14.43;59.52;100376.47;5034311;28;20103;-64
2022/05/28 13:20:05;;;;;;;3.25;1.65;;;;;;;14.43;59.62;100375.59;5034466;28;20401;-63
2022/05/28 13:23:09;;;;;;;;;;;;;;;14.42;59.62;100371.25;5033822;28;20535;-64